createdAt,value
2022-12-28T00:01:09.596Z,1.00
2022-12-28T00:03:39.875Z,1.40
2022-12-28T00:06:10.060Z,1.57
2022-12-28T00:08:42.989Z,1.50
2022-12-28T00:11:28.102Z,1.60
2022-12-28T00:14:04.357Z,1.83
2022-12-28T00:16:35.777Z,0.90
2022-12-28T00:19:10.882Z,1.37
2022-12-28T00:21:41.130Z,0.80
2022-12-28T00:24:12.771Z,1.63
2022-12-28T00:26:41.986Z,1.20
2022-12-28T00:29:22.053Z,1.37
2022-12-28T00:31:51.622Z,1.40
2022-12-28T00:34:22.245Z,1.70
2022-12-28T00:37:11.568Z,1.10
2022-12-28T00:39:42.226Z,1.00
2022-12-28T00:42:11.254Z,1.17
2022-12-28T00:44:41.359Z,1.00
2022-12-28T00:47:10.435Z,1.60
2022-12-28T00:49:41.181Z,1.43
2022-12-28T00:52:11.457Z,2.10
2022-12-28T00:54:40.533Z,0.90
2022-12-28T00:57:10.415Z,1.60
2022-12-28T00:59:39.231Z,1.60
2022-12-28T01:02:09.675Z,0.90
2022-12-28T01:04:40.629Z,1.10
2022-12-28T01:07:09.310Z,1.50
2022-12-28T01:09:39.546Z,1.50
2022-12-28T01:12:08.206Z,1.50
2022-12-28T01:14:37.815Z,1.50
2022-12-28T01:17:06.418Z,1.40
2022-12-28T01:19:36.575Z,1.07
2022-12-28T01:22:05.319Z,1.37
2022-12-28T01:24:34.135Z,1.27
2022-12-28T01:27:02.627Z,0.83
2022-12-28T01:29:31.341Z,0.97
2022-12-28T01:32:01.785Z,2.20
2022-12-28T01:34:30.559Z,0.70
2022-12-28T01:37:00.596Z,1.07
2022-12-28T01:39:29.558Z,1.10
2022-12-28T01:41:58.584Z,0.93
2022-12-28T01:44:44.116Z,1.40
2022-12-28T01:47:14.681Z,1.37
2022-12-28T01:49:45.573Z,0.90
2022-12-28T01:52:19.767Z,1.20
2022-12-28T01:54:50.043Z,0.77
2022-12-28T01:57:20.408Z,0.83
2022-12-28T01:59:52.277Z,1.30
2022-12-28T02:02:27.187Z,1.27
2022-12-28T02:04:55.943Z,1.17
2022-12-28T02:07:32.014Z,0.80
2022-12-28T02:10:43.142Z,0.80
2022-12-28T02:12:49.807Z,1.20
2022-12-28T02:15:23.060Z,1.03
2022-12-28T02:17:56.363Z,0.70
2022-12-28T02:20:26.793Z,1.10
2022-12-28T02:23:04.100Z,1.00
2022-12-28T02:25:52.856Z,1.10
2022-12-28T02:28:29.859Z,1.00
2022-12-28T02:31:05.560Z,0.97
2022-12-28T02:33:38.428Z,0.73
2022-12-28T02:36:18.003Z,1.10
2022-12-28T02:38:51.588Z,0.83
2022-12-28T02:41:22.296Z,1.23
2022-12-28T02:43:51.153Z,1.40
2022-12-28T02:46:39.585Z,0.90
2022-12-28T02:49:35.677Z,0.77
2022-12-28T02:52:09.857Z,0.73
2022-12-28T02:55:08.625Z,0.70
2022-12-28T02:57:50.180Z,0.90
2022-12-28T03:00:21.445Z,0.83
2022-12-28T03:03:02.035Z,0.80
2022-12-28T03:05:57.764Z,0.73
2022-12-28T03:08:31.826Z,0.50
2022-12-28T03:11:04.418Z,0.70
2022-12-28T03:13:53.089Z,0.80
2022-12-28T03:16:23.136Z,0.53
2022-12-28T03:19:15.452Z,0.90
2022-12-28T03:22:01.807Z,0.70
2022-12-28T03:24:49.135Z,1.07
2022-12-28T03:27:36.880Z,0.70
2022-12-28T03:30:25.026Z,0.83
2022-12-28T03:32:56.102Z,0.97
2022-12-28T03:35:30.211Z,1.00
2022-12-28T03:38:00.188Z,0.83
2022-12-28T03:40:31.559Z,0.63
2022-12-28T03:43:22.551Z,1.03
2022-12-28T03:45:55.787Z,0.67
2022-12-28T03:48:28.958Z,0.60
2022-12-28T03:51:00.516Z,1.03
2022-12-28T03:53:31.125Z,1.10
2022-12-28T03:56:08.996Z,0.80
2022-12-28T03:58:38.271Z,0.80
2022-12-28T04:01:07.139Z,0.90
2022-12-28T04:03:36.423Z,0.97
2022-12-28T04:06:06.962Z,0.90
2022-12-28T04:08:37.500Z,0.87
2022-12-28T04:11:06.170Z,0.90
2022-12-28T04:13:34.752Z,0.70
2022-12-28T04:16:04.347Z,0.60
2022-12-28T04:18:33.327Z,0.90
2022-12-28T04:21:01.965Z,1.00
2022-12-28T04:23:32.927Z,0.77
2022-12-28T04:26:14.165Z,0.67
2022-12-28T04:28:42.650Z,0.60
2022-12-28T04:31:12.761Z,0.57
2022-12-28T04:33:41.942Z,0.83
2022-12-28T04:36:11.611Z,1.10
2022-12-28T04:38:41.732Z,0.80
2022-12-28T04:41:11.385Z,1.07
2022-12-28T04:43:40.274Z,0.67
2022-12-28T04:46:09.908Z,1.27
2022-12-28T04:48:38.981Z,1.50
2022-12-28T04:51:08.706Z,1.23
2022-12-28T04:53:42.474Z,1.33
2022-12-28T04:56:14.917Z,0.60
2022-12-28T04:58:43.584Z,0.83
2022-12-28T05:01:13.303Z,0.70
2022-12-28T05:03:42.441Z,0.70
2022-12-28T05:06:17.716Z,0.70
2022-12-28T05:08:48.188Z,1.17
2022-12-28T05:11:19.468Z,0.70
2022-12-28T05:13:48.355Z,0.90
2022-12-28T05:16:18.014Z,0.60
2022-12-28T05:18:46.833Z,0.63
2022-12-28T05:21:16.797Z,0.80
2022-12-28T05:23:45.788Z,0.40
2022-12-28T05:26:18.480Z,0.50
2022-12-28T05:28:47.466Z,0.70
2022-12-28T05:31:17.184Z,0.80
2022-12-28T05:33:47.566Z,0.87
2022-12-28T05:36:17.656Z,1.67
2022-12-28T05:38:46.547Z,1.27
2022-12-28T05:41:17.619Z,1.17
2022-12-28T05:43:46.297Z,1.03
2022-12-28T05:46:16.329Z,1.00
2022-12-28T05:48:45.327Z,0.90
2022-12-28T05:51:14.820Z,0.80
2022-12-28T05:53:43.662Z,0.83
2022-12-28T05:56:14.663Z,0.50
2022-12-28T05:58:45.565Z,0.53
2022-12-28T06:01:15.060Z,0.60
2022-12-28T06:03:44.224Z,0.50
2022-12-28T06:06:14.421Z,0.50
2022-12-28T06:08:43.681Z,0.50
2022-12-28T06:11:19.432Z,0.60
2022-12-28T06:13:50.723Z,0.70
2022-12-28T06:16:22.646Z,0.60
2022-12-28T06:18:54.826Z,0.40
2022-12-28T06:21:25.886Z,0.70
2022-12-28T06:23:57.540Z,1.00
2022-12-28T06:26:26.113Z,0.60
2022-12-28T06:28:56.166Z,0.50
2022-12-28T06:31:25.548Z,0.80
2022-12-28T06:33:56.290Z,0.67
2022-12-28T06:36:25.949Z,0.70
2022-12-28T06:38:57.528Z,0.57
2022-12-28T06:41:44.685Z,0.67
2022-12-28T06:44:15.482Z,0.57
2022-12-28T06:46:46.017Z,0.60
2022-12-28T06:49:14.837Z,0.40
2022-12-28T06:51:43.255Z,0.97
2022-12-28T06:54:12.173Z,0.63
2022-12-28T06:56:40.876Z,0.60
2022-12-28T06:59:09.990Z,0.63
2022-12-28T07:01:44.643Z,0.40
2022-12-28T07:04:15.215Z,0.60
2022-12-28T07:06:44.940Z,0.80
2022-12-28T07:09:20.580Z,0.70
2022-12-28T07:11:59.580Z,0.40
2022-12-28T07:14:28.269Z,0.40
2022-12-28T07:17:21.085Z,0.80
2022-12-28T07:19:51.451Z,0.50
2022-12-28T07:22:26.036Z,0.67
2022-12-28T07:24:55.175Z,0.90
2022-12-28T07:27:26.384Z,0.40
2022-12-28T07:29:54.925Z,0.47
2022-12-28T07:32:32.462Z,0.63
2022-12-28T07:35:01.303Z,0.50
2022-12-28T07:37:29.928Z,0.33
2022-12-28T07:40:00.470Z,0.53
2022-12-28T07:42:30.604Z,0.60
2022-12-28T07:44:59.244Z,0.63
2022-12-28T07:47:32.003Z,0.70
2022-12-28T07:50:00.460Z,0.50
2022-12-28T07:52:28.939Z,0.80
2022-12-28T07:54:57.414Z,0.50
2022-12-28T07:57:26.669Z,0.60
2022-12-28T07:59:55.166Z,0.80
2022-12-28T08:02:24.079Z,1.00
2022-12-28T08:04:54.235Z,0.40
2022-12-28T08:07:22.856Z,0.77
2022-12-28T08:09:52.504Z,1.13
2022-12-28T08:12:24.338Z,0.70
2022-12-28T08:14:53.197Z,0.77
2022-12-28T08:17:22.226Z,0.80
2022-12-28T08:19:57.986Z,0.70
2022-12-28T08:22:36.639Z,0.50
2022-12-28T08:25:05.199Z,0.53
2022-12-28T08:27:38.426Z,0.43
2022-12-28T08:30:07.971Z,0.60
2022-12-28T08:32:36.667Z,0.43
2022-12-28T08:35:08.189Z,0.57
2022-12-28T08:37:36.843Z,0.90
2022-12-28T08:40:05.640Z,0.60
2022-12-28T08:42:35.436Z,0.50
2022-12-28T08:45:04.017Z,0.70
2022-12-28T08:47:32.526Z,0.40
2022-12-28T08:50:01.229Z,0.67
2022-12-28T08:52:31.220Z,0.53
2022-12-28T08:54:59.816Z,0.50
2022-12-28T08:57:34.802Z,0.53
2022-12-28T09:00:03.886Z,0.60
2022-12-28T09:02:32.650Z,0.63
2022-12-28T09:05:01.252Z,0.67
2022-12-28T09:07:31.379Z,0.80
2022-12-28T09:09:59.910Z,0.97
2022-12-28T09:12:28.715Z,1.20
2022-12-28T09:15:08.217Z,0.50
2022-12-28T09:17:36.881Z,0.80
2022-12-28T09:20:05.556Z,0.50
2022-12-28T09:22:38.468Z,0.60
2022-12-28T09:25:07.391Z,0.70
2022-12-28T09:27:36.052Z,0.80
2022-12-28T09:30:04.664Z,0.40
2022-12-28T09:32:34.834Z,0.90
2022-12-28T09:35:03.411Z,0.70
2022-12-28T09:37:34.928Z,0.40
2022-12-28T09:40:06.259Z,0.67
2022-12-28T09:42:36.812Z,0.83
2022-12-28T09:45:06.602Z,0.70
2022-12-28T09:47:39.127Z,0.73
2022-12-28T09:50:29.894Z,0.60
2022-12-28T09:53:16.400Z,0.40
2022-12-28T09:55:50.549Z,0.43
2022-12-28T09:58:19.522Z,0.50
2022-12-28T10:00:48.843Z,0.30
2022-12-28T10:03:19.265Z,0.70
2022-12-28T10:05:48.008Z,0.50
2022-12-28T10:08:17.655Z,0.60
2022-12-28T10:10:49.152Z,0.50
2022-12-28T10:16:09.449Z,0.50
2022-12-28T10:18:39.632Z,0.50
2022-12-28T10:21:08.350Z,0.60
2022-12-28T10:23:50.208Z,0.30
2022-12-28T10:26:30.839Z,0.43
2022-12-28T10:29:01.827Z,0.40
2022-12-28T10:31:34.979Z,0.70
2022-12-28T10:34:13.252Z,0.47
2022-12-28T10:36:42.341Z,0.40
2022-12-28T10:39:16.199Z,0.40
2022-12-28T10:41:48.523Z,0.40
2022-12-28T10:47:19.119Z,0.40
2022-12-28T10:50:18.559Z,0.40
2022-12-28T10:52:39.242Z,0.40
2022-12-28T10:55:27.938Z,0.50
2022-12-28T10:58:28.615Z,0.40
2022-12-28T11:00:54.722Z,0.50
2022-12-28T11:03:26.951Z,0.50
2022-12-28T11:06:18.682Z,0.40
2022-12-28T11:09:01.371Z,0.50
2022-12-28T11:11:29.915Z,0.40
2022-12-28T11:14:14.961Z,0.37
2022-12-28T11:16:45.585Z,0.50
2022-12-28T11:19:16.669Z,0.40
2022-12-28T11:21:45.337Z,0.77
2022-12-28T11:24:17.790Z,0.60
2022-12-28T11:26:47.565Z,0.40
2022-12-28T11:29:18.741Z,0.40
2022-12-28T11:31:49.407Z,0.53
2022-12-28T11:34:19.638Z,0.50
2022-12-28T11:36:48.787Z,0.40
2022-12-28T11:39:34.445Z,0.50
2022-12-28T11:44:56.668Z,0.40
2022-12-28T11:47:34.238Z,0.63
2022-12-28T11:50:21.517Z,1.00
2022-12-28T11:52:51.991Z,1.00
2022-12-28T11:55:40.505Z,0.70
2022-12-28T11:58:27.609Z,0.77
2022-12-28T12:01:00.214Z,0.70
2022-12-28T12:03:43.810Z,0.50
2022-12-28T12:06:12.427Z,0.47
2022-12-28T12:08:43.948Z,0.60
2022-12-28T12:11:33.620Z,0.63
2022-12-28T12:14:05.888Z,0.60
2022-12-28T12:16:50.738Z,0.50
2022-12-28T12:19:25.500Z,0.80
2022-12-28T12:22:00.511Z,0.60
2022-12-28T12:24:31.311Z,0.73
2022-12-28T12:27:08.684Z,0.47
2022-12-28T12:29:46.836Z,0.70
2022-12-28T12:32:34.747Z,0.90
2022-12-28T12:35:07.592Z,0.80
2022-12-28T12:37:45.567Z,0.40
2022-12-28T12:40:28.899Z,0.50
2022-12-28T12:43:33.198Z,0.60
2022-12-28T12:46:28.900Z,0.50
2022-12-28T12:49:23.131Z,0.50
2022-12-28T12:51:55.284Z,0.40
2022-12-28T12:54:30.690Z,0.50
2022-12-28T12:57:02.599Z,0.40
2022-12-28T12:59:50.037Z,0.30
2022-12-28T13:02:37.127Z,0.30
2022-12-28T13:05:08.282Z,0.60
2022-12-28T13:07:45.117Z,0.50
2022-12-28T13:10:27.243Z,0.40
2022-12-28T13:13:02.728Z,0.60
2022-12-28T13:15:43.180Z,0.50
2022-12-28T13:21:28.381Z,0.30
2022-12-28T13:23:57.025Z,0.60
2022-12-28T13:26:45.587Z,0.40
2022-12-28T13:29:17.751Z,0.53
2022-12-28T13:31:52.224Z,0.50
2022-12-28T13:34:37.265Z,0.40
2022-12-28T13:37:23.510Z,0.47
2022-12-28T13:40:20.036Z,0.50
2022-12-28T13:42:55.037Z,0.50
2022-12-28T13:45:24.139Z,0.50
2022-12-28T13:47:58.232Z,0.40
2022-12-28T13:50:35.819Z,0.40
2022-12-28T13:53:06.202Z,0.50
2022-12-28T13:55:38.452Z,0.30
2022-12-28T13:58:09.511Z,0.40
2022-12-28T14:00:41.784Z,0.50
2022-12-28T14:03:24.188Z,0.50
2022-12-28T14:06:10.872Z,0.30
2022-12-28T14:08:48.847Z,0.40
2022-12-28T14:11:45.998Z,0.40
2022-12-28T14:14:16.064Z,0.40
2022-12-28T14:16:46.053Z,0.33
2022-12-28T14:19:16.050Z,0.40
2022-12-28T14:21:55.327Z,0.40
2022-12-28T14:24:24.932Z,0.33
2022-12-28T14:26:55.084Z,0.47
2022-12-28T14:29:28.148Z,0.40
2022-12-28T14:32:00.805Z,0.40
2022-12-28T14:34:30.312Z,0.33
2022-12-28T14:36:59.912Z,0.40
2022-12-28T14:39:30.903Z,0.40
2022-12-28T14:42:01.371Z,0.40
2022-12-28T14:44:33.087Z,0.60
2022-12-28T14:47:02.416Z,0.30
2022-12-28T14:49:44.308Z,0.53
2022-12-28T14:52:31.205Z,0.30
2022-12-28T14:54:59.477Z,0.40
2022-12-28T14:57:31.981Z,0.53
2022-12-28T15:00:03.417Z,0.40
2022-12-28T15:02:49.709Z,0.40
2022-12-28T15:05:37.187Z,0.60
2022-12-28T15:08:06.056Z,0.40
2022-12-28T15:10:36.272Z,0.40
2022-12-28T15:13:04.776Z,0.53
2022-12-28T15:15:34.749Z,0.30
2022-12-28T15:18:03.476Z,0.40
2022-12-28T15:20:33.750Z,0.40
2022-12-28T15:23:02.877Z,0.60
2022-12-28T15:25:32.027Z,0.40
2022-12-28T15:28:04.549Z,0.50
2022-12-28T15:30:45.037Z,0.57
2022-12-28T15:33:13.795Z,0.40
2022-12-28T15:35:44.408Z,0.50
2022-12-28T15:38:14.269Z,0.60
2022-12-28T15:40:48.131Z,0.53
2022-12-28T15:46:14.728Z,0.40
2022-12-28T15:48:53.261Z,0.93
2022-12-28T15:51:38.040Z,0.50
2022-12-28T15:54:06.656Z,0.60
2022-12-28T15:56:36.535Z,0.53
2022-12-28T15:59:07.526Z,1.10
2022-12-28T16:01:41.092Z,1.40
2022-12-28T16:04:24.124Z,4.20
2022-12-28T16:12:46.018Z,0.60
2022-12-28T16:15:14.535Z,0.50
2022-12-28T16:24:00.660Z,0.60
2022-12-28T16:29:26.730Z,0.97
2022-12-28T16:31:56.636Z,2.53
2022-12-28T16:34:28.429Z,0.87
2022-12-28T16:37:00.378Z,0.50
2022-12-28T16:39:30.161Z,1.33
2022-12-28T16:41:59.220Z,1.20
2022-12-28T16:44:29.876Z,0.73
2022-12-28T16:47:01.730Z,1.00
2022-12-28T16:49:32.781Z,0.80
2022-12-28T16:52:03.231Z,0.50
2022-12-28T16:54:39.726Z,0.40
2022-12-28T16:57:08.240Z,4.30
2022-12-28T16:59:39.127Z,4.97
2022-12-28T17:02:08.623Z,1.10
2022-12-28T17:04:38.324Z,0.70
2022-12-28T17:07:08.504Z,1.20
2022-12-28T17:09:38.275Z,0.80
2022-12-28T17:12:07.323Z,0.60
2022-12-28T17:14:41.855Z,0.73
2022-12-28T17:17:10.538Z,1.80
2022-12-28T17:19:39.231Z,1.37
2022-12-28T17:22:09.224Z,1.83
2022-12-28T17:24:37.829Z,1.00
2022-12-28T17:27:09.063Z,1.50
2022-12-28T17:29:40.784Z,1.17
2022-12-28T17:32:09.946Z,1.03
2022-12-28T17:34:38.701Z,1.73
2022-12-28T17:37:07.372Z,1.20
2022-12-28T17:39:40.653Z,2.57
2022-12-28T17:42:10.000Z,1.10
2022-12-28T17:44:39.846Z,5.63
2022-12-28T17:47:08.911Z,7.33
2022-12-28T17:49:39.634Z,4.43
2022-12-28T17:52:08.473Z,2.50
2022-12-28T17:54:39.708Z,2.00
2022-12-28T17:57:08.305Z,3.13
2022-12-28T17:59:36.835Z,1.70
2022-12-28T18:02:11.591Z,1.97
2022-12-28T18:04:40.695Z,1.67
2022-12-28T18:07:09.247Z,1.10
2022-12-28T18:09:39.204Z,2.80
2022-12-28T18:12:07.729Z,3.87
2022-12-28T18:14:36.277Z,2.87
2022-12-28T18:17:04.990Z,1.80
2022-12-28T18:19:34.568Z,1.70
2022-12-28T18:22:03.271Z,1.53
2022-12-28T18:24:31.807Z,1.27
2022-12-28T18:27:01.642Z,1.83
2022-12-28T18:29:30.195Z,1.93
2022-12-28T18:31:58.710Z,1.60
2022-12-28T18:34:27.230Z,1.57
2022-12-28T18:36:55.991Z,1.40
2022-12-28T18:39:26.878Z,4.10
2022-12-28T18:42:02.642Z,2.00
2022-12-28T18:44:32.613Z,1.50
2022-12-28T18:47:01.122Z,0.87
2022-12-28T18:49:33.905Z,2.17
2022-12-28T18:52:02.447Z,2.60
2022-12-28T18:54:33.100Z,1.67
2022-12-28T18:57:01.669Z,1.10
2022-12-28T18:59:31.981Z,0.97
2022-12-28T19:02:14.556Z,0.83
2022-12-28T19:04:57.747Z,0.97
2022-12-28T19:07:32.917Z,1.43
2022-12-28T19:10:14.118Z,1.50
2022-12-28T19:12:42.956Z,1.13
2022-12-28T19:15:12.501Z,1.80
2022-12-28T19:17:42.564Z,1.40
2022-12-28T19:20:11.365Z,1.60
2022-12-28T19:22:40.252Z,1.27
2022-12-28T19:25:10.541Z,0.93
2022-12-28T19:27:40.705Z,2.10
2022-12-28T19:30:13.923Z,5.10
2022-12-28T19:32:47.522Z,2.40
2022-12-28T19:35:16.947Z,1.33
2022-12-28T19:37:47.619Z,1.30
2022-12-28T19:40:16.300Z,1.30
2022-12-28T19:42:46.900Z,1.27
2022-12-28T19:45:18.230Z,1.67
2022-12-28T19:47:50.976Z,1.73
2022-12-28T19:50:19.677Z,1.70
2022-12-28T19:52:54.176Z,1.67
2022-12-28T19:55:30.695Z,2.13
2022-12-28T19:58:11.478Z,2.70
2022-12-28T20:00:49.960Z,4.40
2022-12-28T20:03:22.041Z,5.03
2022-12-28T20:05:53.656Z,2.90
2022-12-28T20:08:22.233Z,3.83
2022-12-28T20:10:56.846Z,3.10
2022-12-28T20:13:35.357Z,2.70
2022-12-28T20:16:15.209Z,1.57
2022-12-28T20:18:55.948Z,1.80
2022-12-28T20:21:26.333Z,1.23
2022-12-28T20:24:01.959Z,1.87
2022-12-28T20:26:37.987Z,1.90
2022-12-28T20:29:06.748Z,1.30
2022-12-28T20:31:39.390Z,2.60
2022-12-28T20:34:17.340Z,2.50
2022-12-28T20:36:49.164Z,1.67
2022-12-28T20:39:21.278Z,1.70
2022-12-28T20:42:20.050Z,1.20
2022-12-28T20:44:51.877Z,3.00
2022-12-28T20:47:30.703Z,1.50
2022-12-28T20:50:07.361Z,1.40
2022-12-28T20:52:41.271Z,1.63
2022-12-28T20:55:10.316Z,1.37
2022-12-28T20:57:39.531Z,2.13
2022-12-28T21:00:14.953Z,2.00
2022-12-28T21:02:45.015Z,1.27
2022-12-28T21:05:15.928Z,1.50
2022-12-28T21:07:45.072Z,1.27
2022-12-28T21:10:15.467Z,1.27
2022-12-28T21:12:49.268Z,0.90
2022-12-28T21:15:27.474Z,1.17
2022-12-28T21:18:04.104Z,1.20
2022-12-28T21:20:38.867Z,1.27
2022-12-28T21:23:07.870Z,0.70
2022-12-28T21:25:44.258Z,1.20
2022-12-28T21:28:12.941Z,1.03
2022-12-28T21:30:42.901Z,0.97
2022-12-28T21:33:11.923Z,0.90
2022-12-28T21:35:42.378Z,1.13
2022-12-28T21:38:16.998Z,1.57
2022-12-28T21:40:47.743Z,1.20
2022-12-28T21:43:16.438Z,0.90
2022-12-28T21:45:45.150Z,0.97
2022-12-28T21:48:13.871Z,1.10
2022-12-28T21:50:46.624Z,1.10
2022-12-28T21:53:16.647Z,1.50
2022-12-28T21:55:51.166Z,1.00
2022-12-28T21:58:19.609Z,1.00
2022-12-28T22:01:29.744Z,0.80
2022-12-28T22:04:17.414Z,0.93
2022-12-28T22:06:48.387Z,1.20
2022-12-28T22:09:34.737Z,1.00
2022-12-28T22:12:22.231Z,1.37
2022-12-28T22:15:24.719Z,1.00
2022-12-28T22:17:57.895Z,0.60
2022-12-28T22:20:27.023Z,0.73
2022-12-28T22:22:59.224Z,0.50
2022-12-28T22:25:28.648Z,0.93
2022-12-28T22:28:01.481Z,0.77
2022-12-28T22:30:31.229Z,0.90
2022-12-28T22:32:59.919Z,1.07
2022-12-28T22:35:28.965Z,1.20
2022-12-28T22:38:02.885Z,0.50
2022-12-28T22:40:31.580Z,0.60
2022-12-28T22:43:00.657Z,1.03
2022-12-28T22:45:31.514Z,1.03
2022-12-28T22:48:01.720Z,0.80
2022-12-28T22:50:30.414Z,0.83
2022-12-28T22:53:00.660Z,0.50
2022-12-28T22:55:29.225Z,0.80
2022-12-28T22:58:02.944Z,0.77
2022-12-28T23:00:34.077Z,0.80
2022-12-28T23:03:04.638Z,0.80
2022-12-28T23:05:35.302Z,0.80
2022-12-28T23:08:07.954Z,0.87
2022-12-28T23:10:37.427Z,0.90
2022-12-28T23:13:07.337Z,1.00
2022-12-28T23:15:40.751Z,0.90
2022-12-28T23:18:24.674Z,0.83
2022-12-28T23:21:08.302Z,0.93
2022-12-28T23:23:57.157Z,0.90
2022-12-28T23:26:46.047Z,0.90
2022-12-28T23:29:14.657Z,0.90
2022-12-28T23:31:45.563Z,0.60
2022-12-28T23:34:16.771Z,1.00
2022-12-28T23:36:45.334Z,0.70
2022-12-28T23:39:15.692Z,0.80
2022-12-28T23:41:53.787Z,0.83
2022-12-28T23:44:24.036Z,0.77
2022-12-28T23:46:58.976Z,0.70
2022-12-28T23:49:28.246Z,0.70
2022-12-28T23:51:58.589Z,0.70
2022-12-28T23:54:28.751Z,1.07
2022-12-28T23:56:57.387Z,0.50
2022-12-28T23:59:27.007Z,0.70
